Flight Track Log - Related Links

Times and Time Zones

All times are in EDT time to prevent confusion due to time zone crossing. See the VOZ1165 flight status page for this flight to view local times or setup timezone preferences in your user account.

Time Position Orientation Groundspeed Altitude Reporting Facility
EDT Latitude Longitude Course Direction KTS MPH feet Rate Location/Type
Fri 09:52:43 PM -33.9498 151.1885 348° North 152 175 400  Level FlightAware ADS-B (YSSY / SYD)
Fri 09:53:03 PM -33.9347 151.1877 357° North 164 189 1,400 2,571 Climbing FlightAware ADS-B (YSSY / SYD)
Fri 09:53:11 PM -33.9298 151.1901 22° Northeast 173 199 1,600 1,667 Climbing FlightAware ADS-B
Fri 09:53:21 PM -33.9227 151.1967 37° Northeast 190 219 1,900 1,778 Climbing FlightAware ADS-B
Fri 09:53:38 PM -33.9122 151.2087 44° Northeast 214 246 2,400 2,063 Climbing FlightAware ADS-B
Fri 09:53:53 PM -33.9008 151.2227 45° Northeast 217 250 3,000 2,471 Climbing FlightAware ADS-B (YSSY / SYD)
Fri 09:54:12 PM -33.8873 151.2391 45° Northeast 242 278 3,800 2,000 Climbing FlightAware ADS-B
Fri 09:54:23 PM -33.8778 151.2507 45° Northeast 256 295 4,000 1,862 Climbing FlightAware ADS-B (YSSY / SYD)
Fri 09:54:41 PM -33.8615 151.2704 45° Northeast 283 326 4,700 1,920 Climbing FlightAware ADS-B
Fri 09:54:48 PM -33.8550 151.2783 45° Northeast 277 319 4,800 1,286 Climbing FlightAware ADS-B (YSSY / SYD)
Fri 09:54:55 PM -33.8475 151.2873 45° Northeast 284 327 5,000 522 Climbing FlightAware ADS-B (YSSY / SYD)
Fri 09:55:11 PM -33.8322 151.3057 45° Northeast 291 335 5,000  Level FlightAware ADS-B
Fri 09:55:32 PM -33.8127 151.3291 45° Northeast 291 335 5,000  Level FlightAware ADS-B
Fri 09:55:55 PM -33.7917 151.3541 45° Northeast 291 335 5,000  Level FlightAware ADS-B
Fri 09:56:12 PM -33.7743 151.3747 44° Northeast 293 337 5,000 1,579 Level FlightAware ADS-B
Fri 09:56:33 PM -33.7519 151.3950 37° Northeast 293 337 6,000 3,091 Climbing FlightAware ADS-B
Fri 09:56:45 PM -33.7365 151.4035 25° Northeast 290 334 6,700 3,375 Climbing FlightAware ADS-B
Fri 09:57:05 PM -33.7109 151.4142 19° North 296 341 7,800 3,059 Climbing FlightAware ADS-B
Fri 09:57:36 PM -33.6699 151.4310 19° North 308 354 9,300 2,516 Climbing FlightAware ADS-B
Fri 09:58:07 PM -33.6420 151.4430 20° North 306 352 10,400 3,000 Climbing FlightAware ADS-B
Fri 09:58:16 PM -33.6147 151.4537 18° North 324 373 11,300 3,261 Climbing FlightAware ADS-B
Fri 09:58:53 PM -33.5604 151.4760 19° North 328 377 12,900 2,597 Climbing FlightAware ADS-B
Fri 09:59:23 PM -33.5166 151.4940 19° North 334 384 14,200 2,571 Climbing FlightAware ADS-B
Fri 09:59:56 PM -33.4671 151.5143 19° North 352 405 15,600 2,571 Climbing FlightAware ADS-B
Fri 10:00:26 PM -33.4190 151.5340 19° North 359 413 16,900 2,600 Climbing FlightAware ADS-B
Fri 10:00:56 PM -33.3713 151.5534 19° North 362 417 18,200 2,400 Climbing FlightAware ADS-B
Fri 10:01:26 PM -33.3231 151.5731 19° North 370 426 19,300 2,261 Climbing FlightAware ADS-B
Fri 10:02:05 PM -33.2584 151.5994 19° North 380 437 20,800 2,250 Climbing FlightAware ADS-B
Fri 10:02:46 PM -33.1912 151.6268 19° North 385 443 22,300 2,301 Climbing FlightAware ADS-B
Fri 10:03:18 PM -33.1368 151.6489 19° North 386 444 23,600 2,239 Climbing FlightAware ADS-B
Fri 10:03:53 PM -33.0777 151.6730 19° North 389 448 24,800 1,481 Climbing FlightAware ADS-B
Fri 10:04:35 PM -33.0080 151.7010 19° North 407 468 25,500 1,169 Climbing FlightAware ADS-B
Fri 10:05:10 PM -32.9420 151.7280 19° North 412 474 26,300 1,333 Climbing FlightAware ADS-B
Fri 10:05:20 PM -32.9222 151.7358 18° North 414 476 26,500 1,174 Climbing FlightAware ADS-B
Fri 10:05:56 PM -32.8534 151.7636 19° North 434 499 27,200 1,360 Climbing FlightAware ADS-B
Fri 10:06:35 PM -32.7830 151.7920 19° North 428 493 28,200 1,459 Climbing FlightAware ADS-B
Fri 10:07:10 PM -32.7140 151.8190 18° North 441 507 29,000 1,457 Climbing FlightAware ADS-B
Fri 10:07:45 PM -32.6480 151.8460 19° North 442 509 29,900 857 Climbing FlightAware ADS-B
Fri 10:08:20 PM -32.5780 151.8740 19° North 440 506 30,000 85 Climbing FlightAware ADS-B
Fri 10:08:56 PM -32.5110 151.9010 19° North 440 506 30,000  Level FlightAware ADS-B
Fri 10:09:35 PM -32.4360 151.9310 19° North 439 505 30,000  Level FlightAware ADS-B
Fri 10:10:13 PM -32.3574 151.9626 19° North 440 506 30,000  Level FlightAware ADS-B
Fri 10:10:45 PM -32.3000 151.9860 19° North 440 506 30,000  Level FlightAware ADS-B
Fri 10:11:25 PM -32.2220 152.0160 18° North 442 509 30,000  Level FlightAware ADS-B
Fri 10:11:55 PM -32.1680 152.0380 19° North 443 510 30,000  Level FlightAware ADS-B
Fri 10:12:35 PM -32.0870 152.0700 19° North 445 512 30,000  Level FlightAware ADS-B
Fri 10:13:10 PM -32.0240 152.0950 19° North 444 511 30,000  Level FlightAware ADS-B
Fri 10:13:50 PM -31.9420 152.1280 19° North 446 513 30,000  Level FlightAware ADS-B
Fri 10:14:26 PM -31.8740 152.1540 18° North 445 512 30,000  Level FlightAware ADS-B
Fri 10:14:56 PM -31.8130 152.1780 18° North 444 511 30,000 -273 Level FlightAware ADS-B
Fri 10:15:32 PM -31.7440 152.2050 18° North 460 529 29,700 -686 Descending FlightAware ADS-B
Fri 10:16:06 PM -31.6720 152.2340 19° North 476 548 29,200 -1,360 Descending FlightAware ADS-B
Fri 10:16:47 PM -31.5870 152.2670 18° North 463 533 28,000 -1,859 Descending FlightAware ADS-B
Fri 10:17:17 PM -31.5270 152.2910 19° North 452 520 27,000 -2,063 Descending FlightAware ADS-B
Fri 10:17:51 PM -31.4620 152.3160 18° North 440 506 25,800 -973 Descending FlightAware ADS-B
Fri 10:18:31 PM -31.3960 152.3410 18° North 440 506 25,800  Level FlightAware ADS-B
Fri 10:19:08 PM -31.3360 152.3640 18° North 440 506 25,800  Level FlightAware ADS-B
Fri 10:19:44 PM -31.2760 152.3870 18° North 440 506 25,800  Level FlightAware ADS-B
Fri 10:20:20 PM -31.2170 152.4090 18° North 440 506 25,800  Level FlightAware ADS-B
Fri 10:20:57 PM -31.1560 152.4320 18° North 440 506 25,800  Level FlightAware ADS-B
Fri 10:21:33 PM -31.0970 152.4550 18° North 440 506 25,800 -5,046 Level FlightAware ADS-B
Fri 10:23:28 PM -30.8968 152.6649 18° North 366 421 13,100 -5,028 Descending Aus ATC (RADAR)
Fri 10:24:32 PM -30.8083 152.7232 30° Northeast 332 382 10,800 -2,121 Descending Aus ATC (RADAR)
Fri 10:25:07 PM -30.7597 152.7555 30° Northeast 333 383 9,600 -1,920 Descending Aus ATC (RADAR)
Fri 10:25:22 PM -30.7396 152.7688 30° Northeast 328 377 9,200 -1,698 Descending Aus ATC (RADAR)
Fri 10:26:00 PM -30.6896 152.8020 30° Northeast 330 380 8,100 -1,689 Descending Aus ATC (RADAR)
Fri 10:27:05 PM -30.6089 152.8549 29° Northeast 307 353 6,300 -1,389 Descending Aus ATC (RADAR)
Fri 10:27:35 PM -30.5742 152.8777 29° Northeast 291 335 5,900 -1,141 Descending Aus ATC (RADAR)
Fri 10:29:27 PM -30.4789 152.9670 39° Northeast 216 249 3,600 -1,172 Descending Aus ATC (RADAR)
Fri 10:30:29 PM -30.4301 153.0121 39° Northeast 218 251 2,500 -1,024 Descending Aus ATC (RADAR)
Fri 10:30:49 PM -30.4204 153.0255 50° Northeast 194 223 2,200 -906 Descending Aus ATC (RADAR)
Fri 10:31:22 PM -30.4034 153.0438 43° Northeast 159 183 1,700 -909 Descending Aus ATC (RADAR)
Fri 10:33:00 PM -30.3206 153.1163 185° South  Level FlightAware Approximate
Fri 10:40:00 PM -30.3206 153.1164 185° South  Level Estimated
Fri 10:41:00 PM -30.3206 153.1164 185° South  Level Estimated
Fri 10:42:00 PM -30.3206 153.1164 185° South  Level Estimated
Fri 10:43:00 PM -30.3206 153.1164 185° South  Level Estimated

Login

Don't have an account? Register now (free) for customized features, flight alerts, and more!